Terminal Aerodrome Forecast
Issued by NWS

Home | Current Version | Previous Version | Text Only | Print | Product List | Glossary On
Versions: 1 2 3 4 5 6 7 8 9 10 11 12
439
FTUS45 KRIW 260526
TAFWRL
TAF
KWRL 260526Z 2606/2706 VRB05KT P6SM SKC
     FM262000 16006KT P6SM SCT110=

USA.gov is the U.S. government's official web portal to all federal, state and local government web resources and services.